Time;durP1;ratioP1;P1;durP2;ratioP2;P2;SDS_P1;SDS_P2;PMS_P1;PMS_P2;Temp;Humidity;BMP_temperature;BMP_pressure;BME280_temperature;BME280_humidity;BME280_pressure;Samples;Min_cycle;Max_cycle;Signal;HPM_P1;HPM_P2
2021/08/25 00:03:30;;;;;;;8.47;5.73;;;;;11.90;102059.00;;;;12870547;22;20184;-78
2021/08/25 00:08:31;;;;;;;9.23;6.10;;;;;11.90;102057.00;;;;12941611;22;20162;-77
2021/08/25 00:13:33;;;;;;;8.83;6.03;;;;;11.90;102053.00;;;;12893888;22;20193;-77
2021/08/25 00:18:34;;;;;;;11.50;6.20;;;;;11.80;102057.00;;;;12894289;22;20197;-77
2021/08/25 00:23:35;;;;;;;8.80;6.23;;;;;11.80;102062.00;;;;12894586;22;20280;-77
2021/08/25 00:28:37;;;;;;;9.00;6.20;;;;;11.70;102045.00;;;;12919046;22;20193;-77
2021/08/25 00:33:38;;;;;;;9.63;6.70;;;;;11.70;102036.00;;;;12892779;22;20586;-77
2021/08/25 00:38:39;;;;;;;9.17;6.10;;;;;11.60;102027.00;;;;12893781;22;20176;-78
2021/08/25 00:43:40;;;;;;;9.70;6.70;;;;;11.60;102029.00;;;;12868620;22;20170;-77
2021/08/25 00:48:42;;;;;;;9.27;6.70;;;;;11.60;102027.00;;;;12893141;22;20173;-77
2021/08/25 00:53:46;;;;;;;8.60;6.40;;;;;11.60;102027.00;;;;12892878;22;20204;-77
2021/08/25 00:58:49;;;;;;;9.90;6.43;;;;;11.50;102025.00;;;;12868257;22;20192;-76
2021/08/25 01:03:54;;;;;;;8.90;6.83;;;;;11.50;102025.00;;;;12894553;22;20188;-78
2021/08/25 01:09:02;;;;;;;8.53;6.47;;;;;11.40;102016.00;;;;12868534;23;20224;-79
2021/08/25 01:14:05;;;;;;;9.33;6.77;;;;;11.40;102006.00;;;;12869195;22;20201;-79
2021/08/25 01:19:13;;;;;;;10.27;6.70;;;;;11.30;102000.00;;;;12843730;22;20195;-79
2021/08/25 01:24:16;;;;;;;8.70;6.47;;;;;11.20;102002.00;;;;12844848;22;20174;-79
2021/08/25 01:29:28;;;;;;;11.63;6.97;;;;;11.20;102004.00;;;;12893129;22;20165;-79
2021/08/25 01:34:29;;;;;;;8.33;6.27;;;;;11.10;101994.00;;;;12914421;22;20638;-79
2021/08/25 01:39:30;;;;;;;9.83;6.43;;;;;11.10;101999.00;;;;12892188;22;20173;-79
2021/08/25 01:44:32;;;;;;;11.10;6.87;;;;;11.00;101993.00;;;;12867688;22;20173;-79
2021/08/25 01:49:33;;;;;;;9.70;5.83;;;;;11.00;102001.00;;;;12893465;22;20593;-79
2021/08/25 01:54:34;;;;;;;9.80;6.37;;;;;10.90;101992.00;;;;12867600;22;20402;-79
2021/08/25 01:59:36;;;;;;;9.43;7.10;;;;;10.90;101992.00;;;;12892393;22;20497;-79
2021/08/25 02:04:37;;;;;;;16.67;7.30;;;;;10.80;101992.00;;;;12892544;22;20174;-79
2021/08/25 02:09:39;;;;;;;8.90;6.40;;;;;10.70;101980.00;;;;12843270;22;20597;-79
2021/08/25 02:14:40;;;;;;;8.40;6.50;;;;;10.70;101971.00;;;;12843242;22;20190;-79
2021/08/25 02:19:41;;;;;;;12.00;6.47;;;;;10.60;101966.00;;;;12866731;22;20189;-79
2021/08/25 02:24:42;;;;;;;8.40;6.47;;;;;10.50;101977.00;;;;12938058;22;20161;-79
2021/08/25 02:29:43;;;;;;;12.80;8.43;;;;;10.50;101969.00;;;;12892726;22;20169;-79
2021/08/25 02:34:44;;;;;;;10.30;6.97;;;;;10.50;101959.00;;;;12868056;22;20267;-78
2021/08/25 02:39:46;;;;;;;10.70;7.40;;;;;10.50;101957.00;;;;12868106;22;20173;-79
2021/08/25 02:44:47;;;;;;;12.77;7.93;;;;;10.40;101951.00;;;;12842007;22;20174;-79
2021/08/25 02:49:48;;;;;;;8.83;6.77;;;;;10.40;101944.00;;;;12866744;22;20177;-79
2021/08/25 02:54:49;;;;;;;8.20;6.33;;;;;10.40;101936.00;;;;12865666;22;20199;-79
2021/08/25 02:59:50;;;;;;;10.70;6.97;;;;;10.30;101937.00;;;;12867657;22;20180;-79
2021/08/25 03:04:52;;;;;;;9.17;7.07;;;;;10.30;101942.00;;;;12890780;22;20180;-79
2021/08/25 03:09:53;;;;;;;11.13;6.80;;;;;10.20;101945.00;;;;12865686;22;20228;-79
2021/08/25 03:14:54;;;;;;;9.80;7.90;;;;;10.20;101933.00;;;;12891760;22;20506;-79
2021/08/25 03:19:55;;;;;;;12.80;7.70;;;;;10.10;101926.00;;;;12845708;22;20193;-79
2021/08/25 03:24:56;;;;;;;14.23;8.00;;;;;10.10;101928.00;;;;12868629;22;20709;-79
2021/08/25 03:29:58;;;;;;;10.43;7.90;;;;;10.10;101920.00;;;;12893926;22;20174;-79
2021/08/25 03:34:59;;;;;;;11.73;8.17;;;;;10.10;101920.00;;;;12868604;22;20200;-79
2021/08/25 03:40:00;;;;;;;11.50;8.27;;;;;10.00;101920.00;;;;12893462;22;20169;-79
2021/08/25 03:45:02;;;;;;;10.70;8.63;;;;;10.00;101910.00;;;;12868879;22;20173;-79
2021/08/25 03:50:04;;;;;;;13.27;9.23;;;;;10.00;101917.00;;;;12916073;22;20170;-79
2021/08/25 03:55:05;;;;;;;13.17;8.13;;;;;9.90;101918.00;;;;12893834;22;20197;-79
2021/08/25 04:00:07;;;;;;;10.93;8.33;;;;;9.90;101914.00;;;;12868781;22;20233;-79
2021/08/25 04:05:14;;;;;;;14.07;9.70;;;;;9.80;101917.00;;;;12894931;22;20170;-79
2021/08/25 04:10:15;;;;;;;12.70;8.67;;;;;9.80;101920.00;;;;12914605;22;20691;-80
2021/08/25 04:15:16;;;;;;;13.50;9.50;;;;;9.80;101920.00;;;;12868176;22;20173;-79
2021/08/25 04:20:17;;;;;;;13.40;9.77;;;;;9.80;101919.00;;;;12870172;22;20409;-80
2021/08/25 04:25:18;;;;;;;10.30;8.63;;;;;9.70;101917.00;;;;12869160;22;20181;-80
2021/08/25 04:30:19;;;;;;;12.73;9.77;;;;;9.70;101922.00;;;;12869881;22;20180;-79
2021/08/25 04:35:21;;;;;;;11.83;9.07;;;;;9.60;101918.00;;;;12869361;22;20174;-79
2021/08/25 04:40:23;;;;;;;13.37;10.07;;;;;9.60;101917.00;;;;12894555;22;20177;-79
2021/08/25 04:45:24;;;;;;;16.90;11.20;;;;;9.60;101917.00;;;;12846114;22;20178;-80
2021/08/25 04:50:25;;;;;;;14.67;9.90;;;;;9.60;101911.00;;;;12869300;22;20200;-79
2021/08/25 04:55:26;;;;;;;16.50;10.60;;;;;9.60;101918.00;;;;12869098;22;20177;-79
2021/08/25 05:00:27;;;;;;;14.37;11.03;;;;;9.70;101923.00;;;;12868896;22;20173;-80
2021/08/25 05:05:29;;;;;;;16.77;12.93;;;;;9.80;101915.00;;;;12845470;22;20169;-80
2021/08/25 05:10:30;;;;;;;20.13;11.90;;;;;9.90;101921.00;;;;12844590;22;20180;-79
2021/08/25 05:15:31;;;;;;;16.93;11.63;;;;;10.00;101928.00;;;;12868487;22;20188;-81
2021/08/25 05:20:32;;;;;;;20.63;13.90;;;;;10.20;101919.00;;;;12869888;22;20169;-80
2021/08/25 05:25:33;;;;;;;19.13;14.83;;;;;10.40;101929.00;;;;12862761;22;21140;-82
2021/08/25 05:30:35;;;;;;;19.83;14.37;;;;;10.80;101926.00;;;;12862487;22;20204;-79
2021/08/25 05:35:36;;;;;;;17.63;14.27;;;;;11.30;101938.00;;;;12839919;22;20177;-80
2021/08/25 05:40:37;;;;;;;16.07;12.73;;;;;11.90;101955.00;;;;12865358;22;20625;-79
2021/08/25 05:45:38;;;;;;;16.50;12.23;;;;;12.20;101960.00;;;;12915411;22;20235;-79
2021/08/25 05:50:39;;;;;;;14.23;12.43;;;;;12.50;101965.00;;;;12890212;22;20225;-78
2021/08/25 05:55:41;;;;;;;14.50;11.37;;;;;12.90;101980.00;;;;12889949;22;20228;-79
2021/08/25 06:00:42;;;;;;;16.90;11.97;;;;;13.20;101976.00;;;;12865326;22;20657;-79
2021/08/25 06:05:43;;;;;;;14.80;11.53;;;;;13.40;101980.00;;;;12864651;22;20184;-79
2021/08/25 06:10:47;;;;;;;12.30;10.00;;;;;13.70;101984.00;;;;12886099;22;20231;-79
2021/08/25 06:15:48;;;;;;;14.87;10.07;;;;;14.10;101985.00;;;;12888530;22;20185;-79
2021/08/25 06:20:51;;;;;;;10.87;9.50;;;;;14.70;101997.00;;;;12887170;22;20204;-79
2021/08/25 06:25:52;;;;;;;13.10;9.27;;;;;15.20;101985.00;;;;12839302;22;20177;-80
2021/08/25 06:30:53;;;;;;;10.17;7.57;;;;;15.70;101986.00;;;;12888960;22;20185;-80
2021/08/25 06:35:54;;;;;;;10.50;7.70;;;;;16.20;101972.00;;;;12862962;22;20178;-80
2021/08/25 06:40:56;;;;;;;12.00;7.90;;;;;16.50;101964.00;;;;12863908;22;20195;-80
2021/08/25 06:45:57;;;;;;;13.07;7.43;;;;;16.80;101967.00;;;;12889778;22;20169;-80
2021/08/25 06:50:58;;;;;;;9.73;6.95;;;;;17.00;101956.00;;;;12865807;22;20240;-79
2021/08/25 06:55:59;;;;;;;8.48;6.13;;;;;17.30;101957.00;;;;12867564;22;20174;-80
2021/08/25 07:01:01;;;;;;;13.00;7.45;;;;;17.60;101940.00;;;;12892102;22;20176;-80
2021/08/25 07:06:02;;;;;;;11.07;7.00;;;;;17.80;101933.00;;;;12839074;22;20205;-80
2021/08/25 07:11:04;;;;;;;9.93;7.43;;;;;17.90;101924.00;;;;12833451;23;20490;-80
2021/08/25 07:16:07;;;;;;;10.80;7.15;;;;;18.10;101930.00;;;;12842973;22;20208;-80
2021/08/25 07:21:09;;;;;;;9.05;7.47;;;;;18.30;101932.00;;;;12890659;22;20196;-80
2021/08/25 07:26:10;;;;;;;11.38;7.43;;;;;18.60;101945.00;;;;12867655;22;20497;-80
2021/08/25 07:31:12;;;;;;;10.70;7.15;;;;;18.70;101957.00;;;;12841018;22;20197;-80
2021/08/25 07:36:14;;;;;;;10.63;7.82;;;;;18.90;101951.00;;;;12866586;22;20181;-80
2021/08/25 07:41:15;;;;;;;9.63;7.80;;;;;19.00;101956.00;;;;12866596;22;20595;-80
2021/08/25 07:46:16;;;;;;;9.38;7.25;;;;;19.20;101950.00;;;;12865695;22;20652;-79
2021/08/25 07:51:18;;;;;;;11.40;8.75;;;;;19.50;101953.00;;;;12842158;22;20201;-79
2021/08/25 07:56:19;;;;;;;11.18;7.30;;;;;19.80;101962.00;;;;12892676;22;20180;-79
2021/08/25 08:01:22;;;;;;;12.30;7.57;;;;;20.10;101960.00;;;;12869140;22;20173;-82
2021/08/25 08:06:23;;;;;;;10.80;7.00;;;;;20.40;101955.00;;;;12844968;22;20180;-81
2021/08/25 08:11:24;;;;;;;11.27;6.15;;;;;20.80;101958.00;;;;12914418;22;20185;-80
2021/08/25 08:16:26;;;;;;;11.02;7.35;;;;;21.30;101969.00;;;;12845878;22;20211;-80
2021/08/25 08:21:28;;;;;;;9.75;6.53;;;;;21.60;101963.00;;;;12867626;22;20170;-81
2021/08/25 08:26:29;;;;;;;8.85;6.20;;;;;21.90;101963.00;;;;12890904;22;20244;-81
2021/08/25 08:31:31;;;;;;;8.82;6.47;;;;;22.20;101962.00;;;;12843063;22;20683;-81
2021/08/25 08:36:33;;;;;;;7.55;5.95;;;;;22.50;101962.00;;;;12844280;22;20170;-81
2021/08/25 08:41:34;;;;;;;8.23;6.18;;;;;23.00;101960.00;;;;12860613;22;20235;-82
2021/08/25 08:46:37;;;;;;;9.73;6.20;;;;;23.30;101958.00;;;;12891942;22;20684;-81
2021/08/25 08:51:39;;;;;;;9.63;6.28;;;;;23.70;101956.00;;;;12866454;22;20193;-82
2021/08/25 08:56:41;;;;;;;7.07;6.28;;;;;24.30;101959.00;;;;12892560;22;20177;-82
2021/08/25 09:01:42;;;;;;;7.25;5.38;;;;;24.50;101960.00;;;;12844975;22;20173;-81
2021/08/25 09:06:45;;;;;;;11.25;5.88;;;;;24.80;101966.00;;;;12868032;22;20173;-82
2021/08/25 09:11:49;;;;;;;8.13;4.60;;;;;24.90;101953.00;;;;12891802;22;20197;-82
2021/08/25 09:16:50;;;;;;;7.82;5.07;;;;;24.90;101959.00;;;;12893401;22;20204;-82
2021/08/25 09:21:52;;;;;;;10.88;5.18;;;;;25.00;101950.00;;;;12867634;23;20172;-82
2021/08/25 09:27:10;;;;;;;11.00;5.15;;;;;25.30;101949.00;;;;12888809;22;20177;-81
2021/08/25 09:32:19;;;;;;;15.38;5.38;;;;;25.50;101945.00;;;;12889341;22;20201;-82
2021/08/25 09:37:21;;;;;;;9.13;4.60;;;;;25.60;101949.00;;;;12890923;22;20169;-82
2021/08/25 09:42:23;;;;;;;5.55;4.18;;;;;25.80;101954.00;;;;12890560;22;20188;-81
2021/08/25 09:47:51;;;;;;;5.15;3.63;;;;;26.00;101945.00;;;;12863876;22;20256;-81
2021/08/25 09:52:52;;;;;;;5.47;4.22;;;;;26.20;101944.00;;;;12865469;22;20195;-81
2021/08/25 09:57:56;;;;;;;7.40;4.80;;;;;26.50;101950.00;;;;12864240;22;20530;-81
2021/08/25 10:02:57;;;;;;;5.40;4.00;;;;;26.50;101921.00;;;;12839341;22;20755;-82
2021/08/25 10:08:01;;;;;;;7.85;3.72;;;;;26.80;101932.00;;;;12865663;22;20185;-82
2021/08/25 10:13:04;;;;;;;6.07;4.07;;;;;26.80;101926.00;;;;12890204;22;20289;-81
2021/08/25 10:18:29;;;;;;;4.32;3.15;;;;;26.90;101914.00;;;;12881302;22;20251;-81
2021/08/25 10:23:59;;;;;;;6.22;3.55;;;;;26.90;101913.00;;;;12913596;22;20649;-82
2021/08/25 10:29:07;;;;;;;12.88;3.45;;;;;26.90;101900.00;;;;12863846;22;20181;-82
2021/08/25 10:34:13;;;;;;;5.78;3.42;;;;;27.00;101906.00;;;;12914773;22;20276;-82
2021/08/25 10:39:31;;;;;;;5.78;3.30;;;;;26.90;101901.00;;;;12862655;23;20804;-79
2021/08/25 10:44:39;;;;;;;5.82;3.60;;;;;27.20;101903.00;;;;12862928;22;20846;-81
2021/08/25 10:49:46;;;;;;;6.38;3.90;;;;;27.50;101896.00;;;;12890638;22;20176;-82
2021/08/25 10:54:49;;;;;;;6.13;3.20;;;;;27.80;101886.00;;;;12890659;22;20190;-83
2021/08/25 10:59:51;;;;;;;5.60;4.35;;;;;27.90;101880.00;;;;12864191;22;20166;-82
2021/08/25 11:04:59;;;;;;;8.32;4.32;;;;;27.90;101875.00;;;;12866039;22;20265;-82
2021/08/25 11:10:01;;;;;;;8.52;4.40;;;;;27.90;101863.00;;;;12864228;22;20632;-80
2021/08/25 11:15:03;;;;;;;5.13;3.78;;;;;28.00;101870.00;;;;12887796;22;20197;-82
2021/08/25 11:20:07;;;;;;;5.80;3.20;;;;;28.30;101849.00;;;;12825833;22;20200;-82
2021/08/25 11:25:16;;;;;;;7.88;3.53;;;;;28.50;101832.00;;;;12891471;22;20169;-83
2021/08/25 11:30:25;;;;;;;5.40;3.63;;;;;28.30;101831.00;;;;12867855;22;20400;-82
2021/08/25 11:35:35;;;;;;;9.30;3.15;;;;;28.20;101823.00;;;;12867574;22;20205;-82
2021/08/25 11:40:39;;;;;;;5.75;3.63;;;;;28.30;101823.00;;;;12866714;22;20197;-82
2021/08/25 11:45:42;;;;;;;4.38;3.50;;;;;28.40;101808.00;;;;12891975;22;20561;-82
2021/08/25 11:50:48;;;;;;;4.55;3.22;;;;;28.40;101805.00;;;;12868154;22;20204;-81
2021/08/25 11:55:55;;;;;;;5.25;3.13;;;;;28.50;101799.00;;;;12868469;22;20532;-81
2021/08/25 12:00:58;;;;;;;9.75;3.75;;;;;28.80;101791.00;;;;12867287;22;20205;-82
2021/08/25 12:05:59;;;;;;;5.22;3.63;;;;;28.50;101791.00;;;;12894573;22;20169;-82
2021/08/25 12:11:02;;;;;;;6.30;4.10;;;;;28.10;101791.00;;;;12866036;22;20204;-82
2021/08/25 12:16:11;;;;;;;6.53;3.80;;;;;28.20;101784.00;;;;12864790;22;20193;-83
2021/08/25 12:21:12;;;;;;;6.57;3.92;;;;;28.30;101782.00;;;;12864683;22;20181;-82
2021/08/25 12:26:16;;;;;;;4.28;3.28;;;;;28.10;101776.00;;;;12887817;22;20193;-82
2021/08/25 12:31:29;;;;;;;5.57;3.40;;;;;27.90;101778.00;;;;12890492;22;20197;-81
2021/08/25 12:36:57;;;;;;;6.00;4.10;;;;;27.80;101761.00;;;;12842605;22;20241;-79
2021/08/25 12:42:14;;;;;;;5.47;3.92;;;;;27.70;101761.00;;;;12846133;22;20229;-81
2021/08/25 12:47:15;;;;;;;8.38;3.85;;;;;27.50;101749.00;;;;12890807;22;20600;-82
2021/08/25 12:52:16;;;;;;;6.75;4.00;;;;;27.80;101736.00;;;;12890428;22;20194;-83
2021/08/25 12:57:18;;;;;;;6.60;4.05;;;;;27.90;101745.00;;;;12868453;22;20169;-82
2021/08/25 13:02:20;;;;;;;5.15;3.70;;;;;28.00;101742.00;;;;12867460;23;20675;-81
2021/08/25 13:07:22;;;;;;;6.72;3.88;;;;;28.20;101735.00;;;;12889996;22;20170;-82
2021/08/25 13:12:23;;;;;;;5.20;3.78;;;;;28.20;101741.00;;;;12869929;22;20186;-81
2021/08/25 13:17:24;;;;;;;6.22;3.78;;;;;28.30;101731.00;;;;12864710;22;20513;-82
2021/08/25 13:22:26;;;;;;;6.05;3.78;;;;;28.00;101721.00;;;;12842363;22;20177;-79
2021/08/25 13:27:27;;;;;;;6.22;3.90;;;;;27.80;101710.00;;;;12891416;22;20220;-82
2021/08/25 13:32:28;;;;;;;6.30;4.13;;;;;27.90;101719.00;;;;12842452;22;20197;-81
2021/08/25 13:37:29;;;;;;;5.28;3.75;;;;;28.10;101697.00;;;;12867024;22;20166;-79
2021/08/25 13:42:34;;;;;;;5.28;3.95;;;;;28.20;101693.00;;;;12891511;22;20174;-81
2021/08/25 13:47:35;;;;;;;5.63;4.70;;;;;28.00;101692.00;;;;12868086;22;20746;-82
2021/08/25 13:52:38;;;;;;;7.65;4.55;;;;;27.60;101690.00;;;;12843279;22;20205;-81
2021/08/25 13:57:39;;;;;;;7.10;4.38;;;;;27.60;101687.00;;;;12868624;22;20166;-81
2021/08/25 14:02:40;;;;;;;5.40;4.20;;;;;27.70;101666.00;;;;12866102;22;20165;-81
2021/08/25 14:07:42;;;;;;;8.43;4.80;;;;;28.10;101665.00;;;;12890620;22;20173;-81
2021/08/25 14:12:43;;;;;;;6.35;4.25;;;;;28.20;101661.00;;;;12892153;22;20640;-81
2021/08/25 14:17:44;;;;;;;7.85;3.80;;;;;28.20;101664.00;;;;12864431;22;20894;-81
2021/08/25 14:22:46;;;;;;;7.40;3.75;;;;;30.10;101658.00;;;;12916808;22;20252;-82
2021/08/25 14:27:47;;;;;;;5.47;3.83;;;;;32.90;101636.00;;;;12867373;22;20176;-82
2021/08/25 14:32:49;;;;;;;7.60;4.50;;;;;34.10;101641.00;;;;12893881;22;20285;-82
2021/08/25 14:37:59;;;;;;;5.05;3.90;;;;;34.60;101627.00;;;;12894276;22;20170;-82
2021/08/25 14:43:01;;;;;;;6.00;4.05;;;;;34.20;101616.00;;;;12890442;22;20178;-82
2021/08/25 14:48:02;;;;;;;6.43;4.18;;;;;34.90;101621.00;;;;12866610;23;20500;-82
2021/08/25 14:53:08;;;;;;;7.40;4.30;;;;;34.90;101621.00;;;;12866267;22;20720;-82
2021/08/25 14:58:09;;;;;;;4.93;3.80;;;;;35.00;101614.00;;;;12866607;22;20271;-82
2021/08/25 15:03:10;;;;;;;7.80;3.72;;;;;35.30;101605.00;;;;12867084;22;20173;-82
2021/08/25 15:08:12;;;;;;;10.43;4.43;;;;;29.60;101620.00;;;;12891485;22;20169;-80
2021/08/25 15:13:15;;;;;;;7.60;4.70;;;;;27.10;101613.00;;;;12842662;22;20189;-81
2021/08/25 15:18:16;;;;;;;6.55;4.43;;;;;26.30;101605.00;;;;12874417;23;20292;-82
2021/08/25 15:23:17;;;;;;;6.85;4.80;;;;;26.10;101597.00;;;;12900319;22;20165;-82
2021/08/25 15:28:18;;;;;;;6.43;3.78;;;;;25.10;101591.00;;;;12925748;22;20260;-81
2021/08/25 15:33:19;;;;;;;5.78;4.03;;;;;24.70;101587.00;;;;12901884;22;20185;-82
2021/08/25 15:38:21;;;;;;;5.90;3.88;;;;;24.50;101574.00;;;;12876948;22;20197;-81
2021/08/25 15:43:23;;;;;;;7.20;4.13;;;;;24.10;101568.00;;;;12873729;22;20181;-81
2021/08/25 15:48:24;;;;;;;6.18;3.58;;;;;23.90;101563.00;;;;12852863;22;20193;-80
2021/08/25 15:53:25;;;;;;;5.03;3.50;;;;;23.70;101563.00;;;;12877746;22;20193;-80
2021/08/25 15:58:26;;;;;;;7.63;4.80;;;;;23.80;101557.00;;;;12851306;22;20177;-81
2021/08/25 16:03:32;;;;;;;6.00;4.10;;;;;23.90;101544.00;;;;12900537;22;20208;-80
2021/08/25 16:08:33;;;;;;;5.80;4.22;;;;;23.90;101540.00;;;;12875304;22;20193;-81
2021/08/25 16:13:36;;;;;;;5.65;3.92;;;;;24.10;101528.00;;;;12898410;22;20204;-80
2021/08/25 16:18:40;;;;;;;11.18;9.65;;;;;24.00;101534.00;;;;12853077;23;20220;-81
2021/08/25 16:23:41;;;;;;;11.25;9.93;;;;;23.60;101529.00;;;;12875057;22;20173;-81
2021/08/25 16:28:43;;;;;;;12.07;8.93;;;;;23.20;101530.00;;;;12899895;22;20177;-80
2021/08/25 16:33:44;;;;;;;11.40;8.77;;;;;23.10;101527.00;;;;12874537;22;20200;-81
2021/08/25 16:38:45;;;;;;;11.50;8.38;;;;;22.70;101526.00;;;;12875104;22;20841;-81
2021/08/25 16:43:47;;;;;;;7.60;6.90;;;;;22.40;101518.00;;;;12900971;22;20166;-81
2021/08/25 16:48:48;;;;;;;8.70;5.82;;;;;22.00;101523.00;;;;12850863;22;20169;-80
2021/08/25 16:53:50;;;;;;;6.65;5.13;;;;;21.70;101531.00;;;;12900090;22;20199;-81
2021/08/25 16:58:51;;;;;;;5.72;4.80;;;;;21.50;101528.00;;;;12878080;22;20250;-81
2021/08/25 17:03:52;;;;;;;8.07;4.45;;;;;21.30;101529.00;;;;12899628;22;20236;-80
2021/08/25 17:08:54;;;;;;;5.53;3.72;;;;;21.00;101517.00;;;;12898803;22;20177;-81
2021/08/25 17:13:55;;;;;;;6.78;4.10;;;;;20.90;101508.00;;;;12946802;22;20199;-82
2021/08/25 17:18:56;;;;;;;5.50;4.00;;;;;20.70;101514.00;;;;12849932;22;20292;-80
2021/08/25 17:23:58;;;;;;;4.90;3.50;;;;;20.50;101526.00;;;;12898870;23;20503;-81
2021/08/25 17:28:59;;;;;;;5.05;2.92;;;;;20.30;101518.00;;;;12899103;22;20180;-80
2021/08/25 17:34:00;;;;;;;3.15;2.60;;;;;20.20;101517.00;;;;12873766;22;20201;-81
2021/08/25 17:39:02;;;;;;;3.25;2.40;;;;;20.00;101529.00;;;;12897337;22;20615;-81
2021/08/25 17:44:03;;;;;;;3.42;2.13;;;;;19.70;101526.00;;;;12899045;22;20177;-81
2021/08/25 17:49:04;;;;;;;2.25;2.00;;;;;19.50;101522.00;;;;12872489;22;20166;-80
2021/08/25 17:54:06;;;;;;;3.92;2.30;;;;;19.40;101529.00;;;;12873532;22;20276;-80
2021/08/25 17:59:07;;;;;;;2.55;2.08;;;;;19.20;101524.00;;;;12873759;22;20233;-80
2021/08/25 18:04:08;;;;;;;4.65;1.70;;;;;19.10;101527.00;;;;12874025;22;20624;-80
2021/08/25 18:09:09;;;;;;;1.95;1.40;;;;;18.90;101530.00;;;;12898966;22;20169;-80
2021/08/25 18:14:12;;;;;;;2.25;1.50;;;;;18.70;101534.00;;;;12897682;22;20197;-80
2021/08/25 18:19:14;;;;;;;4.10;1.20;;;;;18.50;101540.00;;;;12872567;22;20268;-80
2021/08/25 18:24:15;;;;;;;2.78;1.33;;;;;18.30;101534.00;;;;12872410;22;20193;-80
2021/08/25 18:29:16;;;;;;;1.73;1.02;;;;;18.10;101535.00;;;;12896935;22;20178;-80
2021/08/25 18:34:17;;;;;;;1.67;1.02;;;;;17.90;101523.00;;;;12897230;22;20193;-80
2021/08/25 18:39:19;;;;;;;2.78;1.00;;;;;17.70;101540.00;;;;12872189;22;20228;-80
2021/08/25 18:44:20;;;;;;;2.13;1.00;;;;;17.60;101536.00;;;;12847667;22;20208;-80
2021/08/25 18:49:22;;;;;;;6.78;1.35;;;;;17.40;101536.00;;;;12872888;22;20177;-80
2021/08/25 18:54:23;;;;;;;2.35;1.20;;;;;17.30;101541.00;;;;12897995;22;20200;-81
2021/08/25 18:59:24;;;;;;;1.10;0.93;;;;;17.10;101538.00;;;;12875068;22;20202;-80
2021/08/25 19:04:26;;;;;;;1.23;1.10;;;;;17.00;101534.00;;;;12872203;22;20181;-80
2021/08/25 19:09:27;;;;;;;1.45;1.15;;;;;16.90;101538.00;;;;12871617;22;20173;-80
2021/08/25 19:14:28;;;;;;;1.35;1.23;;;;;16.80;101532.00;;;;12871869;22;20648;-80
2021/08/25 19:19:30;;;;;;;1.42;1.33;;;;;16.70;101527.00;;;;12898467;22;20189;-80
2021/08/25 19:24:32;;;;;;;2.58;1.38;;;;;16.60;101518.00;;;;12873531;22;20166;-80
2021/08/25 19:29:33;;;;;;;3.43;1.37;;;;;16.40;101512.00;;;;12872682;22;20232;-80
2021/08/25 19:34:35;;;;;;;3.13;1.50;;;;;16.40;101514.00;;;;12898434;22;20199;-80
2021/08/25 19:39:36;;;;;;;4.53;1.80;;;;;16.30;101520.00;;;;12900308;22;20216;-80
2021/08/25 19:44:37;;;;;;;2.13;1.93;;;;;16.20;101515.00;;;;12874279;22;20664;-81
2021/08/25 19:49:38;;;;;;;1.80;1.70;;;;;16.10;101519.00;;;;12897714;23;20252;-80
2021/08/25 19:54:39;;;;;;;4.87;2.20;;;;;16.00;101524.00;;;;12874195;22;20201;-80
2021/08/25 19:59:41;;;;;;;2.73;2.47;;;;;15.90;101524.00;;;;12875987;22;20169;-80
2021/08/25 20:04:42;;;;;;;3.30;2.27;;;;;15.80;101519.00;;;;12902309;22;20609;-80
2021/08/25 20:09:43;;;;;;;4.43;3.20;;;;;15.80;101514.00;;;;12875438;22;20169;-80
2021/08/25 20:14:44;;;;;;;5.47;2.40;;;;;15.70;101515.00;;;;12877216;22;20203;-80
2021/08/25 20:19:46;;;;;;;2.43;2.23;;;;;15.70;101513.00;;;;12876869;22;20279;-80
2021/08/25 20:24:47;;;;;;;3.07;2.80;;;;;15.70;101510.00;;;;12876103;22;20177;-79
2021/08/25 20:29:48;;;;;;;2.80;2.60;;;;;15.70;101496.00;;;;12876090;22;20174;-80
2021/08/25 20:34:49;;;;;;;2.83;2.27;;;;;15.60;101500.00;;;;12876393;22;20197;-80
2021/08/25 20:39:51;;;;;;;2.60;2.40;;;;;15.60;101501.00;;;;12877550;22;20264;-79
2021/08/25 20:44:52;;;;;;;3.50;2.27;;;;;15.60;101508.00;;;;12877047;22;20177;-79
2021/08/25 20:49:54;;;;;;;2.97;1.90;;;;;15.60;101509.00;;;;12901526;22;20177;-80
2021/08/25 20:54:55;;;;;;;2.23;2.00;;;;;15.70;101507.00;;;;12901295;22;20257;-79
2021/08/25 20:59:56;;;;;;;2.50;2.30;;;;;15.80;101498.00;;;;12902125;22;20643;-79
2021/08/25 21:04:58;;;;;;;2.97;2.10;;;;;15.90;101494.00;;;;12901624;22;20178;-79
2021/08/25 21:09:59;;;;;;;2.80;2.60;;;;;16.00;101494.00;;;;12874551;22;20193;-80
2021/08/25 21:15:02;;;;;;;3.13;2.83;;;;;16.00;101499.00;;;;12877686;22;20205;-79
2021/08/25 21:20:03;;;;;;;3.90;3.23;;;;;16.10;101496.00;;;;12899482;22;20215;-79
2021/08/25 21:25:05;;;;;;;3.50;3.20;;;;;16.20;101494.00;;;;12848893;22;20177;-80
2021/08/25 21:30:08;;;;;;;3.60;2.87;;;;;16.20;101494.00;;;;12874135;22;20627;-79
2021/08/25 21:35:09;;;;;;;3.60;3.30;;;;;16.30;101496.00;;;;12920253;22;20570;-79
2021/08/25 21:40:11;;;;;;;4.30;3.30;;;;;16.30;101500.00;;;;12871499;22;20170;-79
2021/08/25 21:45:13;;;;;;;3.40;2.63;;;;;16.30;101490.00;;;;12873426;22;20177;-79
2021/08/25 21:50:15;;;;;;;2.57;2.37;;;;;16.30;101487.00;;;;12847194;22;20446;-79
2021/08/25 21:55:16;;;;;;;3.10;2.20;;;;;16.40;101468.00;;;;12872227;22;20203;-79
2021/08/25 22:00:18;;;;;;;2.90;2.60;;;;;16.40;101471.00;;;;12898272;22;20237;-80
2021/08/25 22:05:19;;;;;;;4.03;2.70;;;;;16.40;101471.00;;;;12873094;22;20541;-80
2021/08/25 22:10:21;;;;;;;4.20;2.40;;;;;16.40;101462.00;;;;12873287;22;20224;-79
2021/08/25 22:15:22;;;;;;;4.03;1.90;;;;;16.30;101452.00;;;;12873456;22;20198;-80
2021/08/25 22:20:24;;;;;;;3.70;2.53;;;;;16.20;101445.00;;;;12897869;22;20170;-79
2021/08/25 22:25:26;;;;;;;2.40;2.20;;;;;16.10;101431.00;;;;12898921;22;20204;-80
2021/08/25 22:30:27;;;;;;;5.90;2.53;;;;;16.10;101416.00;;;;12898468;22;20227;-79
2021/08/25 22:35:28;;;;;;;4.67;2.50;;;;;16.10;101406.00;;;;12873329;22;20197;-79
2021/08/25 22:40:29;;;;;;;4.77;2.50;;;;;16.10;101396.00;;;;12873913;22;20173;-79
2021/08/25 22:45:30;;;;;;;4.77;2.30;;;;;16.10;101384.00;;;;12895962;22;20181;-79
2021/08/25 22:50:32;;;;;;;4.07;2.70;;;;;16.10;101375.00;;;;12870022;23;20169;-79
2021/08/25 22:55:33;;;;;;;4.63;2.97;;;;;16.10;101377.00;;;;12896006;22;20197;-79
2021/08/25 23:00:34;;;;;;;4.33;3.27;;;;;16.00;101368.00;;;;12896377;22;20241;-79
2021/08/25 23:05:35;;;;;;;3.27;2.97;;;;;15.90;101363.00;;;;12895913;22;20176;-80
2021/08/25 23:10:37;;;;;;;4.47;3.53;;;;;15.80;101356.00;;;;12895359;22;20204;-79
2021/08/25 23:15:38;;;;;;;4.73;3.00;;;;;15.80;101358.00;;;;12895027;22;20208;-79
2021/08/25 23:20:39;;;;;;;6.10;3.80;;;;;15.80;101362.00;;;;12939711;22;20165;-79
2021/08/25 23:25:40;;;;;;;7.00;4.07;;;;;15.80;101358.00;;;;12869617;22;20628;-80
2021/08/25 23:30:42;;;;;;;6.97;4.10;;;;;15.80;101349.00;;;;12869826;22;20220;-79
2021/08/25 23:35:43;;;;;;;7.90;4.03;;;;;15.80;101350.00;;;;12870550;22;20226;-80
2021/08/25 23:40:44;;;;;;;4.70;3.70;;;;;15.80;101350.00;;;;12897045;22;20203;-80
2021/08/25 23:45:45;;;;;;;6.20;4.33;;;;;15.80;101337.00;;;;12847290;22;20188;-79
2021/08/25 23:50:47;;;;;;;5.13;3.87;;;;;15.80;101324.00;;;;12872736;22;20546;-79
2021/08/25 23:55:48;;;;;;;7.30;4.70;;;;;15.90;101321.00;;;;12869978;22;20197;-80
